Latest Weather Observations for Tasman Island

IDT60901

Issued at 4:21 pm EDT Tuesday 31 March 2015 (issued every 10 minutes, with the page automatically refreshed every 10 minutes)

About weather observations | Map of Hobart area stations | Latest observations for Hobart area | Other Formats
Station Details ID: 094155 Name: TASMAN ISLAND Lat: -43.24 Lon: 148.00 Height: 240.0 m
Data from the previous 72 hours. | See also: Recent months at Tasman Island
Date/Time
EDT
Tmp

°C
App
Tmp
°C
Dew
Point
°C
Rel
Hum
%
Delta-T

°C
Wind Press
QNH
hPa
Press
MSL
hPa
Rain
since
9 am
mm
Dir
 
Spd
km/h
Gust
km/h
Spd
kts
Gust
kts
31/04:00pm 15.8 15.0 11.0 73 2.6 ESE 6 9 3 5 1021.3 1021.1 0.0
31/03:30pm 16.4 15.3 10.5 68 3.2 NE 7 11 4 6 1021.2 1021.0 0.0
31/03:00pm 15.2 14.1 10.0 71 2.7 SE 6 7 3 4 1021.4 1021.2 0.0
31/02:30pm 15.9 15.3 10.4 70 2.9 SSE 4 9 2 5 1021.7 1021.5 0.0
31/02:00pm 15.7 14.6 10.0 69 3.0 SSE 6 9 3 5 1021.8 1021.6 0.0
31/01:30pm 16.4 14.7 10.0 66 3.4 SW 9 15 5 8 1022.4 1022.2 0.0
31/01:00pm 16.4 15.5 10.5 68 3.2 SSE 6 9 3 5 1022.6 1022.4 0.0
31/12:30pm 16.4 15.3 9.8 65 3.5 SSW 6 11 3 6 1022.8 1022.7 0.0
31/12:00pm 16.6 14.7 9.1 61 3.9 N 9 17 5 9 1023.2 1023.0 0.0
31/11:30am 16.3 14.5 9.3 63 3.7 N 9 17 5 9 1023.3 1023.1 0.0
31/11:00am 16.1 14.8 9.3 64 3.5 N 6 15 3 8 1023.5 1023.3 0.0
31/10:30am 15.1 13.6 9.0 67 3.2 NW 7 11 4 6 1023.8 1023.6 0.0
31/10:00am 15.6 14.1 8.6 63 3.6 N 6 9 3 5 1023.8 1023.6 0.0
31/09:30am 14.7 13.4 9.1 69 2.9 NW 6 11 3 6 1024.0 1023.8 0.0
31/09:00am 14.4 12.8 8.8 69 2.9 NNE 7 13 4 7 1023.8 1023.6 0.0
31/08:30am 13.5 12.6 9.4 76 2.1 N 4 9 2 5 1023.8 1023.6 0.0
31/08:00am 11.8 10.3 8.6 81 1.6 WSW 6 7 3 4 1023.6 1023.4 0.0
31/07:30am 12.2 11.5 8.7 79 1.8 N 2 2 1 1 1023.3 1023.1 0.0
31/07:00am 11.7 10.2 8.4 80 1.6 NNE 6 9 3 5 1022.9 1022.8 0.0
31/06:30am 11.7 10.5 8.0 78 1.8 NE 4 6 2 3 1022.9 1022.8 0.0
31/06:00am 12.0 10.8 7.9 76 2.0 ENE 4 6 2 3 1022.8 1022.7 0.0
31/05:30am 12.3 11.1 8.2 76 2.0 ESE 4 6 2 3 1022.7 1022.6 0.0
31/05:00am 12.2 11.3 7.9 75 2.1 SSE 2 4 1 2 1022.7 1022.6 0.0
31/04:30am 12.0 11.0 7.5 74 2.2 NE 2 2 1 1 1022.6 1022.4 0.0
31/04:00am 12.6 11.4 7.9 73 2.3 NNW 4 7 2 4 1022.7 1022.6 0.0
31/03:30am 12.5 11.7 8.2 75 2.2 NNW 2 4 1 2 1022.7 1022.6 0.0
31/03:00am 12.7 11.6 8.4 75 2.2 NNW 4 9 2 5 1022.8 1022.7 0.0
31/02:30am 12.4 10.0 8.5 77 2.0 WNW 11 17 6 9 1022.8 1022.7 0.0
31/02:00am 12.1 9.2 8.0 76 2.0 WNW 13 19 7 10 1022.9 1022.8 0.0
31/01:30am 12.5 11.4 8.4 76 2.1 NNW 4 9 2 5 1022.9 1022.8 0.0
31/01:00am 12.4 9.3 8.9 79 1.8 NNW 15 20 8 11 1023.0 1022.9 0.0
31/12:30am 12.5 10.5 8.6 77 2.0 NNW 9 15 5 8 1022.9 1022.8 0.0
31/12:00am 13.0 10.2 8.5 74 2.3 NW 13 20 7 11 1023.2 1023.0 0.0
 
Date/Time
EDT
Tmp

°C
App
Tmp
°C
Dew
Point
°C
Rel
Hum
%
Delta-T

°C
Wind Press
QNH
hPa
Press
MSL
hPa
Rain
since
9 am
mm
Dir
 
Spd
km/h
Gust
km/h
Spd
kts
Gust
kts
30/11:30pm 13.1 9.7 9.0 76 2.1 NW 17 20 9 11 1023.3 1023.1 0.0
30/11:00pm 12.7 10.7 10.2 85 1.3 NNW 11 15 6 8 1023.2 1023.0 0.0
30/10:30pm 13.1 11.6 10.5 84 1.4 NW 9 15 5 8 1023.0 1022.9 0.0
30/10:00pm 12.8 11.6 10.3 85 1.3 NNW 7 9 4 5 1022.8 1022.7 0.0
30/09:30pm 12.5 11.5 11.1 91 0.7 N 7 9 4 5 1022.8 1022.7 0.0
30/09:00pm 12.6 12.2 11.0 90 0.8 NE 4 6 2 3 1022.6 1022.4 0.0
30/08:30pm 12.9 12.1 11.0 88 1.0 E 6 7 3 4 1022.3 1022.1 0.0
30/08:00pm 12.8 12.5 11.4 91 0.7 NE 4 6 2 3 1021.8 1021.6 0.0
30/07:30pm 12.6 12.3 11.3 92 0.7 SE 4 6 2 3 1021.4 1021.2 0.0
30/07:00pm 12.7 11.9 11.1 90 0.8 S 6 7 3 4 1021.1 1020.9 0.0
30/06:30pm 13.4 12.4 11.1 86 1.2 S 7 11 4 6 1020.7 1020.5 0.0
30/06:00pm 13.9 12.6 11.2 84 1.4 SSE 9 13 5 7 1020.3 1020.1 0.0
30/05:30pm 14.2 12.5 11.2 82 1.6 S 11 17 6 9 1020.0 1019.8 0.0
30/05:00pm 14.2 11.4 11.4 83 1.5 S 17 22 9 12 1019.6 1019.4 0.0
30/04:30pm 14.3 11.2 11.6 84 1.5 SSE 19 30 10 16 1019.4 1019.2 0.0
30/04:00pm 18.7 17.4 11.3 62 4.1 W 9 17 5 9 1018.9 1018.6 0.0
30/03:30pm 18.8 17.1 9.8 56 4.8 WSW 9 15 5 8 1018.9 1018.6 0.0
30/03:00pm 18.6 16.9 9.7 56 4.8 W 9 13 5 7 1018.7 1018.5 0.0
30/02:30pm 18.2 16.2 10.3 60 4.3 N 11 17 6 9 1018.7 1018.5 0.0
30/02:00pm 18.1 16.1 10.0 59 4.3 NNW 11 17 6 9 1018.6 1018.4 0.0
30/01:30pm 17.9 15.8 9.8 59 4.3 NW 11 20 6 11 1018.5 1018.3 0.0
30/01:00pm 17.3 15.6 10.0 62 3.9 N 9 17 5 9 1018.7 1018.5 0.0
30/12:30pm 17.0 15.4 10.1 64 3.7 N 9 17 5 9 1018.9 1018.6 0.0
30/12:00pm 17.8 15.7 9.9 60 4.2 NW 11 19 6 10 1019.1 1018.8 0.0
30/11:30am 16.6 15.2 9.5 63 3.7 W 7 13 4 7 1019.2 1018.9 0.0
30/11:00am 15.4 12.6 8.6 64 3.5 W 13 30 7 16 1019.2 1018.9 0.0
30/10:30am 14.8 12.4 8.5 66 3.2 W 11 22 6 12 1019.0 1018.7 0.0
30/10:00am 14.9 12.1 8.4 65 3.3 WNW 13 26 7 14 1018.6 1018.4 0.0
30/09:30am 14.6 12.1 8.1 65 3.3 WNW 11 20 6 11 1018.5 1018.3 0.0
30/09:00am 14.1 11.6 8.1 67 3.0 W 11 22 6 12 1018.0 1017.8 3.0
30/08:30am 13.6 11.8 8.0 69 2.8 WSW 7 19 4 10 1017.9 1017.7 3.0
30/08:00am 12.5 10.8 8.4 76 2.1 NW 7 19 4 10 1017.6 1017.4 3.0
30/07:30am 12.1 9.8 7.6 74 2.2 NW 9 15 5 8 1017.4 1017.2 3.0
30/07:00am 12.4 9.8 7.7 73 2.3 NW 11 17 6 9 1017.1 1016.9 3.0
30/06:30am 12.4 9.7 7.5 72 2.4 NW 11 15 6 8 1016.9 1016.7 3.0
30/06:00am 12.6 9.3 8.1 74 2.2 WNW 15 20 8 11 1016.8 1016.6 3.0
30/05:30am 12.3 8.6 8.0 75 2.1 NW 17 20 9 11 1016.7 1016.5 3.0
30/05:00am 12.1 9.2 8.0 76 2.0 NW 13 19 7 10 1016.7 1016.5 3.0
30/04:30am 12.4 9.6 8.5 77 2.0 NW 13 19 7 10 1016.7 1016.5 3.0
30/04:00am 12.4 9.7 8.9 79 1.8 NW 13 17 7 9 1016.8 1016.6 3.0
30/03:30am 11.7 9.2 9.8 88 1.0 NNW 13 17 7 9 1016.9 1016.7 3.0
30/03:00am 11.4 8.8 10.6 95 0.4 N 15 24 8 13 1017.1 1016.9 3.0
30/02:30am 11.7 8.8 10.9 95 0.4 N 17 24 9 13 1017.4 1017.2 3.0
30/02:00am 11.4 8.0 10.6 95 0.4 N 19 24 10 13 1017.5 1017.3 3.0
30/01:30am 11.1 7.9 9.9 92 0.6 NNW 17 20 9 11 1017.6 1017.4 3.0
30/01:00am 11.6 9.0 9.2 85 1.2 NNW 13 19 7 10 1017.7 1017.5 3.0
30/12:30am 11.6 8.0 8.5 81 1.6 NW 17 28 9 15 1017.7 1017.5 3.0
30/12:00am 11.5 8.4 8.7 83 1.4 NW 15 20 8 11 1017.9 1017.7 3.0
 
Date/Time
EDT
Tmp

°C
App
Tmp
°C
Dew
Point
°C
Rel
Hum
%
Delta-T

°C
Wind Press
QNH
hPa
Press
MSL
hPa
Rain
since
9 am
mm
Dir
 
Spd
km/h
Gust
km/h
Spd
kts
Gust
kts
29/11:30pm 11.1 8.3 9.9 92 0.6 NNW 15 22 8 12 1018.0 1017.8 3.0
29/11:00pm 10.5 8.6 9.1 91 0.7 N 9 15 5 8 1018.1 1017.9 3.0
29/10:30pm 10.5 7.8 8.8 89 0.8 NNW 13 17 7 9 1018.3 1018.1 3.0
29/10:00pm 10.7 8.6 8.3 85 1.2 NNE 9 13 5 7 1018.3 1018.1 3.0
29/09:30pm 11.1 9.4 8.5 84 1.3 NW 7 13 4 7 1018.1 1017.9 3.0
29/09:00pm 11.3 9.3 8.5 83 1.4 SW 9 17 5 9 1017.8 1017.6 3.0
29/08:30pm 11.2 8.3 8.2 82 1.5 SSW 13 24 7 13 1017.5 1017.3 3.0
29/08:00pm 10.9 6.7 7.6 80 1.6 SW 19 35 10 19 1017.1 1016.9 3.0
29/07:30pm 11.3 8.0 8.0 80 1.6 SSW 15 32 8 17 1017.1 1016.9 3.0
29/07:00pm 11.3 9.1 9.2 87 1.1 SSW 11 24 6 13 1016.8 1016.6 3.0
29/06:30pm 11.3 8.7 9.2 87 1.1 SSW 13 28 7 15 1016.5 1016.3 3.0
29/06:00pm 11.2 7.8 9.3 88 1.0 SSW 17 28 9 15 1016.1 1015.9 3.0
29/05:30pm 11.1 8.4 10.5 96 0.3 SW 15 26 8 14 1016.0 1015.8 3.0
29/05:00pm 10.6 7.2 10.4 99 0.1 SW 19 28 10 15 1016.0 1015.8 3.0
29/04:30pm 10.1 6.0 10.0 99 0.1 SW 22 37 12 20 1015.7 1015.5 3.0
29/04:00pm 10.4 8.1 10.4 100 0.0 SW 13 26 7 14 1015.7 1015.5 3.0
29/03:30pm 10.3 7.2 10.3 100 0.0 SSW 17 35 9 19 1015.7 1015.5 3.0
29/03:00pm 10.2 7.1 10.2 100 0.0 SW 17 26 9 14 1015.7 1015.5 2.8
29/02:30pm 9.9 6.3 9.9 100 0.0 SW 19 32 10 17 1015.5 1015.2 2.6
29/02:00pm 10.3 7.2 10.3 100 0.0 SW 17 26 9 14 1015.3 1015.0 2.0
29/01:30pm 9.8 5.2 9.7 99 0.1 SW 24 39 13 21 1015.2 1014.9 1.6
29/01:22pm 9.8 4.5 9.7 99 0.1 SW 28 48 15 26 1015.2 1014.9 1.4
29/01:00pm 10.0 6.4 9.9 99 0.1 SSW 19 33 10 18 1015.1 1014.8 1.0
29/12:32pm 11.4 6.9 10.1 92 0.7 SSW 24 46 13 25 1015.0 1014.7 0.2
29/12:30pm 11.7 7.9 9.9 89 0.9 S 20 44 11 24 1014.9 1014.6 0.2
29/12:08pm 13.5 7.1 8.6 72 2.5 WNW 32 50 17 27 1014.2 1014.0 0.0
29/12:00pm 13.9 5.3 8.3 69 2.8 NW 43 57 23 31 1014.0 1013.8 0.0
29/11:42am 13.9 4.7 8.1 68 2.9 NW 46 65 25 35 1013.6 1013.4 0.0
29/11:30am 14.1 4.4 7.6 65 3.2 NW 48 61 26 33 1013.5 1013.3 0.0
29/11:00am 14.0 5.3 7.5 65 3.2 NW 43 57 23 31 1013.7 1013.5 0.0
29/10:30am 14.4 6.8 7.7 64 3.4 NW 37 54 20 29 1013.7 1013.5 0.0
29/10:20am 15.5 9.3 7.8 60 3.9 NW 30 48 16 26 1013.9 1013.7 0.0
29/10:00am 15.7 11.5 8.4 62 3.7 NW 20 32 11 17 1014.2 1014.0 0.0
29/09:30am 13.5 7.9 7.3 66 3.1 NW 26 39 14 21 1013.8 1013.6 0.0
29/09:00am 13.3 8.8 6.9 65 3.1 WNW 20 33 11 18 1013.9 1013.7 0.2
29/08:32am 12.8 6.7 6.6 66 3.0 WNW 28 48 15 26 1013.6 1013.4 0.2
29/08:30am 12.8 6.7 6.6 66 3.0 WNW 28 44 15 24 1013.6 1013.4 0.2
29/08:04am 12.3 5.2 6.6 68 2.8 NW 33 56 18 30 1013.2 1013.0 0.2
29/08:00am 12.2 5.3 6.5 68 2.7 NW 32 46 17 25 1013.2 1013.0 0.2
29/07:30am 11.6 7.0 6.3 70 2.5 WNW 20 33 11 18 1013.6 1013.4 0.2
29/07:00am 11.5 6.1 6.2 70 2.5 WNW 24 39 13 21 1013.7 1013.5 0.2
29/06:30am 11.2 6.6 6.3 72 2.3 NW 20 35 11 19 1013.5 1013.3 0.2
29/06:00am 11.5 4.5 6.0 69 2.6 NW 32 54 17 29 1013.1 1012.9 0.2
29/05:34am 10.7 4.2 6.5 75 2.0 NW 30 48 16 26 1013.3 1013.1 0.2
29/05:30am 10.9 4.0 6.5 74 2.1 NW 32 48 17 26 1013.4 1013.2 0.2
29/05:29am 10.7 3.8 6.5 75 2.0 NW 32 48 17 26 1013.4 1013.2 0.2
29/05:00am 10.0 5.6 6.5 79 1.7 N 19 28 10 15 1013.3 1013.1 0.2
29/04:30am 10.5 6.2 6.8 78 1.8 WNW 19 28 10 15 1014.6 1014.3 0.2
29/04:00am 10.5 6.6 7.2 80 1.6 WNW 17 26 9 14 1013.9 1013.7 0.2
29/03:30am 10.7 8.9 7.2 79 1.7 NW 6 15 3 8 1014.2 1014.0 0.2
29/03:00am 10.7 8.0 7.2 79 1.7 NNW 11 26 6 14 1014.3 1014.1 0.2
29/02:30am 10.8 8.2 7.7 81 1.5 WNW 11 20 6 11 1014.9 1014.6 0.2
29/02:00am 10.7 8.5 7.9 83 1.4 NW 9 15 5 8 1015.2 1014.9 0.2
29/01:30am 11.2 7.9 8.1 81 1.5 NW 15 22 8 12 1015.5 1015.2 0.2
29/01:00am 11.2 9.2 8.8 85 1.2 NW 9 17 5 9 1015.7 1015.5 0.2
29/12:30am 11.3 7.5 9.2 87 1.1 N 19 26 10 14 1015.9 1015.7 0.2
29/12:00am 11.7 7.4 9.3 85 1.2 N 22 35 12 19 1016.4 1016.2 0.2
 
Date/Time
EDT
Tmp

°C
App
Tmp
°C
Dew
Point
°C
Rel
Hum
%
Delta-T

°C
Wind Press
QNH
hPa
Press
MSL
hPa
Rain
since
9 am
mm
Dir
 
Spd
km/h
Gust
km/h
Spd
kts
Gust
kts
28/11:30pm 11.9 7.2 9.3 84 1.3 NNE 24 35 13 19 1016.8 1016.6 0.2
28/11:00pm 12.0 7.6 9.0 82 1.5 N 22 28 12 15 1017.2 1017.0 0.2
28/10:30pm 11.9 7.4 8.6 80 1.7 N 22 30 12 16 1017.7 1017.5 0.2
28/10:00pm 12.1 7.6 8.4 78 1.8 NNE 22 33 12 18 1018.0 1017.8 0.2
28/09:30pm 12.0 8.1 8.8 81 1.6 NNE 19 26 10 14 1018.1 1017.9 0.2
28/09:00pm 11.6 7.2 8.8 83 1.4 NNE 22 28 12 15 1018.1 1017.9 0.2
28/08:30pm 11.5 7.4 8.7 83 1.4 NNE 20 26 11 14 1018.1 1017.9 0.2
28/08:00pm 11.3 7.7 8.5 83 1.4 NNE 17 26 9 14 1018.1 1017.9 0.2
28/07:30pm 11.2 7.9 8.2 82 1.5 NE 15 24 8 13 1018.2 1018.0 0.2
28/07:00pm 11.0 8.9 8.2 83 1.4 NE 9 19 5 10 1018.3 1018.1 0.2
28/06:30pm 11.3 10.1 8.2 81 1.5 E 4 7 2 4 1018.4 1018.2 0.2
28/06:00pm 11.9 11.1 8.2 78 1.8 NE 2 6 1 3 1018.4 1018.2 0.2
28/05:30pm 12.4 11.2 8.1 75 2.1 SE 4 7 2 4 1018.4 1018.2 0.2
28/05:00pm 13.0 11.4 8.9 76 2.1 SSE 7 13 4 7 1018.2 1018.0 0.2
28/04:30pm 12.7 11.0 8.4 75 2.2 SE 7 11 4 6 1018.4 1018.2 0.2

Latest Capital City Observations: Canberra | Sydney | Melbourne | Brisbane | Adelaide | Perth | Hobart | Darwin

Other Formats:

Comma delimited format used in spreadsheet applications
http://www.bom.gov.au/fwo/IDT60901/IDT60901.95986.axf

JavaScript Object Notation format (JSON) in row-major order
http://www.bom.gov.au/fwo/IDT60901/IDT60901.95986.json